sensor_id;sensor_type;location;lat;lon;timestamp;pressure;altitude;pressure_sealevel;temperature
77414;BMP280;66486;49.992;19.164;2023-09-19T00:00:38;98235.28;;;17.74
77414;BMP280;66486;49.992;19.164;2023-09-19T00:03:26;98243.44;;;17.74
77414;BMP280;66486;49.992;19.164;2023-09-19T00:05:53;98241.28;;;17.78
77414;BMP280;66486;49.992;19.164;2023-09-19T00:08:19;98234.31;;;17.77
77414;BMP280;66486;49.992;19.164;2023-09-19T00:10:49;98229.13;;;17.79
77414;BMP280;66486;49.992;19.164;2023-09-19T00:13:15;98228.69;;;17.81
77414;BMP280;66486;49.992;19.164;2023-09-19T00:15:46;98219.75;;;17.80
77414;BMP280;66486;49.992;19.164;2023-09-19T00:18:17;98222.25;;;17.84
77414;BMP280;66486;49.992;19.164;2023-09-19T00:20:46;98211.88;;;17.82
77414;BMP280;66486;49.992;19.164;2023-09-19T00:23:13;98218.38;;;17.91
77414;BMP280;66486;49.992;19.164;2023-09-19T00:25:39;98217.44;;;17.94
77414;BMP280;66486;49.992;19.164;2023-09-19T00:28:06;98210.22;;;17.91
77414;BMP280;66486;49.992;19.164;2023-09-19T00:30:36;98207.44;;;17.85
77414;BMP280;66486;49.992;19.164;2023-09-19T00:33:04;98205.94;;;17.84
77414;BMP280;66486;49.992;19.164;2023-09-19T00:35:32;98206.69;;;17.84
77414;BMP280;66486;49.992;19.164;2023-09-19T00:37:59;98205.25;;;17.89
77414;BMP280;66486;49.992;19.164;2023-09-19T00:40:25;98204.97;;;17.87
77414;BMP280;66486;49.992;19.164;2023-09-19T00:42:57;98204.22;;;17.86
77414;BMP280;66486;49.992;19.164;2023-09-19T00:45:25;98202.03;;;17.91
77414;BMP280;66486;49.992;19.164;2023-09-19T00:47:51;98197.78;;;17.84
77414;BMP280;66486;49.992;19.164;2023-09-19T00:50:19;98199.81;;;17.89
77414;BMP280;66486;49.992;19.164;2023-09-19T00:52:50;98195.13;;;17.90
77414;BMP280;66486;49.992;19.164;2023-09-19T00:55:18;98192.94;;;17.94
77414;BMP280;66486;49.992;19.164;2023-09-19T00:57:46;98189.72;;;17.95
77414;BMP280;66486;49.992;19.164;2023-09-19T01:00:13;98184.88;;;18.05
77414;BMP280;66486;49.992;19.164;2023-09-19T01:02:45;98177.63;;;18.02
77414;BMP280;66486;49.992;19.164;2023-09-19T01:05:12;98175.22;;;18.09
77414;BMP280;66486;49.992;19.164;2023-09-19T01:07:38;98176.25;;;18.12
77414;BMP280;66486;49.992;19.164;2023-09-19T01:10:16;98171.06;;;18.14
77414;BMP280;66486;49.992;19.164;2023-09-19T01:13:00;98170.06;;;18.11
77414;BMP280;66486;49.992;19.164;2023-09-19T01:23:36;98167.84;;;18.15
77414;BMP280;66486;49.992;19.164;2023-09-19T01:26:07;98162.16;;;18.13
77414;BMP280;66486;49.992;19.164;2023-09-19T01:29:02;98168.31;;;18.08
77414;BMP280;66486;49.992;19.164;2023-09-19T01:31:33;98157.66;;;18.10
77414;BMP280;66486;49.992;19.164;2023-09-19T01:34:03;98159.38;;;18.08
77414;BMP280;66486;49.992;19.164;2023-09-19T01:36:35;98155.69;;;18.11
77414;BMP280;66486;49.992;19.164;2023-09-19T01:39:04;98154.25;;;18.15
77414;BMP280;66486;49.992;19.164;2023-09-19T01:42:03;98153.28;;;18.18
77414;BMP280;66486;49.992;19.164;2023-09-19T01:44:46;98146.59;;;18.19
77414;BMP280;66486;49.992;19.164;2023-09-19T01:47:34;98143.66;;;18.23
77414;BMP280;66486;49.992;19.164;2023-09-19T01:52:47;98145.88;;;18.19
77414;BMP280;66486;49.992;19.164;2023-09-19T01:55:16;98155.03;;;18.21
77414;BMP280;66486;49.992;19.164;2023-09-19T02:00:43;98151.31;;;18.24
77414;BMP280;66486;49.992;19.164;2023-09-19T02:03:11;98153.81;;;18.22
77414;BMP280;66486;49.992;19.164;2023-09-19T02:05:38;98146.84;;;18.21
77414;BMP280;66486;49.992;19.164;2023-09-19T02:08:05;98154.56;;;18.23
77414;BMP280;66486;49.992;19.164;2023-09-19T02:10:31;98152.56;;;18.23
77414;BMP280;66486;49.992;19.164;2023-09-19T02:12:57;98151.38;;;18.30
77414;BMP280;66486;49.992;19.164;2023-09-19T02:15:25;98150.44;;;18.33
77414;BMP280;66486;49.992;19.164;2023-09-19T02:17:50;98150.94;;;18.37
77414;BMP280;66486;49.992;19.164;2023-09-19T02:20:17;98152.41;;;18.38
77414;BMP280;66486;49.992;19.164;2023-09-19T02:22:45;98150.66;;;18.35
77414;BMP280;66486;49.992;19.164;2023-09-19T02:25:11;98159.34;;;18.39
77414;BMP280;66486;49.992;19.164;2023-09-19T02:27:39;98157.16;;;18.43
77414;BMP280;66486;49.992;19.164;2023-09-19T02:30:06;98150.47;;;18.44
77414;BMP280;66486;49.992;19.164;2023-09-19T02:32:32;98150.22;;;18.42
77414;BMP280;66486;49.992;19.164;2023-09-19T02:35:01;98156.94;;;18.46
77414;BMP280;66486;49.992;19.164;2023-09-19T02:37:27;98158.66;;;18.44
77414;BMP280;66486;49.992;19.164;2023-09-19T02:39:54;98146.56;;;18.50
77414;BMP280;66486;49.992;19.164;2023-09-19T02:42:20;98142.06;;;18.42
77414;BMP280;66486;49.992;19.164;2023-09-19T02:44:46;98147.47;;;18.36
77414;BMP280;66486;49.992;19.164;2023-09-19T02:47:13;98147.69;;;18.38
77414;BMP280;66486;49.992;19.164;2023-09-19T02:49:41;98145.69;;;18.33
77414;BMP280;66486;49.992;19.164;2023-09-19T02:52:08;98151.91;;;18.34
77414;BMP280;66486;49.992;19.164;2023-09-19T02:54:34;98150.44;;;18.38
77414;BMP280;66486;49.992;19.164;2023-09-19T02:57:00;98146.03;;;18.41
77414;BMP280;66486;49.992;19.164;2023-09-19T02:59:26;98127.88;;;18.32
77414;BMP280;66486;49.992;19.164;2023-09-19T03:01:54;98132.06;;;18.28
77414;BMP280;66486;49.992;19.164;2023-09-19T03:04:20;98136.81;;;18.38
77414;BMP280;66486;49.992;19.164;2023-09-19T03:06:46;98137.56;;;18.39
77414;BMP280;66486;49.992;19.164;2023-09-19T03:09:14;98135.13;;;18.41
77414;BMP280;66486;49.992;19.164;2023-09-19T03:11:43;98139.38;;;18.53
77414;BMP280;66486;49.992;19.164;2023-09-19T03:14:12;98134.91;;;18.50
77414;BMP280;66486;49.992;19.164;2023-09-19T03:16:38;98136.88;;;18.44
77414;BMP280;66486;49.992;19.164;2023-09-19T03:19:04;98135.84;;;18.41
77414;BMP280;66486;49.992;19.164;2023-09-19T03:21:30;98134.84;;;18.39
77414;BMP280;66486;49.992;19.164;2023-09-19T03:23:57;98135.53;;;18.28
77414;BMP280;66486;49.992;19.164;2023-09-19T03:26:23;98124.22;;;18.41
77414;BMP280;66486;49.992;19.164;2023-09-19T03:28:49;98132.53;;;18.68
77414;BMP280;66486;49.992;19.164;2023-09-19T03:31:15;98127.53;;;18.56
77414;BMP280;66486;49.992;19.164;2023-09-19T03:33:41;98123.03;;;18.53
77414;BMP280;66486;49.992;19.164;2023-09-19T03:36:07;98119.06;;;18.48
77414;BMP280;66486;49.992;19.164;2023-09-19T03:38:34;98128.69;;;18.44
77414;BMP280;66486;49.992;19.164;2023-09-19T03:41:00;98128.72;;;18.49
77414;BMP280;66486;49.992;19.164;2023-09-19T03:43:27;98124.97;;;18.47
77414;BMP280;66486;49.992;19.164;2023-09-19T03:45:53;98128.72;;;18.49
77414;BMP280;66486;49.992;19.164;2023-09-19T03:48:20;98123.75;;;18.48
77414;BMP280;66486;49.992;19.164;2023-09-19T03:50:47;98121.03;;;18.48
77414;BMP280;66486;49.992;19.164;2023-09-19T03:53:13;98116.38;;;18.54
77414;BMP280;66486;49.992;19.164;2023-09-19T03:55:39;98112.19;;;18.58
77414;BMP280;66486;49.992;19.164;2023-09-19T03:58:05;98119.31;;;18.50
77414;BMP280;66486;49.992;19.164;2023-09-19T04:00:32;98113.38;;;18.52
77414;BMP280;66486;49.992;19.164;2023-09-19T04:02:58;98113.13;;;18.50
77414;BMP280;66486;49.992;19.164;2023-09-19T04:05:24;98113.63;;;18.54
77414;BMP280;66486;49.992;19.164;2023-09-19T04:07:50;98115.59;;;18.53
77414;BMP280;66486;49.992;19.164;2023-09-19T04:10:16;98118.63;;;18.55
77414;BMP280;66486;49.992;19.164;2023-09-19T04:12:53;98121.03;;;18.48
77414;BMP280;66486;49.992;19.164;2023-09-19T04:15:19;98126.97;;;18.46
77414;BMP280;66486;49.992;19.164;2023-09-19T04:17:51;98128.44;;;18.42
77414;BMP280;66486;49.992;19.164;2023-09-19T04:20:18;98129.44;;;18.44
77414;BMP280;66486;49.992;19.164;2023-09-19T04:22:49;98143.09;;;18.50
77414;BMP280;66486;49.992;19.164;2023-09-19T04:25:15;98141.63;;;18.54
77414;BMP280;66486;49.992;19.164;2023-09-19T04:27:41;98146.34;;;18.54
77414;BMP280;66486;49.992;19.164;2023-09-19T04:30:08;98146.06;;;18.52
77414;BMP280;66486;49.992;19.164;2023-09-19T04:32:38;98137.19;;;18.51
77414;BMP280;66486;49.992;19.164;2023-09-19T04:35:08;98135.19;;;18.52
77414;BMP280;66486;49.992;19.164;2023-09-19T04:37:37;98142.38;;;18.60
77414;BMP280;66486;49.992;19.164;2023-09-19T04:40:05;98134.50;;;18.62
77414;BMP280;66486;49.992;19.164;2023-09-19T04:42:32;98146.44;;;18.70
77414;BMP280;66486;49.992;19.164;2023-09-19T04:44:57;98138.97;;;18.71
77414;BMP280;66486;49.992;19.164;2023-09-19T04:47:25;98150.63;;;18.66
77414;BMP280;66486;49.992;19.164;2023-09-19T04:49:52;98152.38;;;18.69
77414;BMP280;66486;49.992;19.164;2023-09-19T04:52:18;98154.31;;;18.63
77414;BMP280;66486;49.992;19.164;2023-09-19T04:54:44;98150.63;;;18.66
77414;BMP280;66486;49.992;19.164;2023-09-19T04:57:12;98152.06;;;18.56
77414;BMP280;66486;49.992;19.164;2023-09-19T04:59:38;98158.75;;;18.60
77414;BMP280;66486;49.992;19.164;2023-09-19T05:02:06;98153.59;;;18.68
77414;BMP280;66486;49.992;19.164;2023-09-19T05:04:34;98167.22;;;18.68
77414;BMP280;66486;49.992;19.164;2023-09-19T05:07:01;98155.06;;;18.63
77414;BMP280;66486;49.992;19.164;2023-09-19T05:09:29;98160.25;;;18.61
77414;BMP280;66486;49.992;19.164;2023-09-19T05:11:56;98164.72;;;18.64
77414;BMP280;66486;49.992;19.164;2023-09-19T05:14:22;98160.31;;;18.73
77414;BMP280;66486;49.992;19.164;2023-09-19T05:16:50;98163.75;;;18.67
77414;BMP280;66486;49.992;19.164;2023-09-19T05:19:22;98151.59;;;18.63
77414;BMP280;66486;49.992;19.164;2023-09-19T05:21:51;98160.50;;;18.63
77414;BMP280;66486;49.992;19.164;2023-09-19T05:24:18;98157.06;;;18.63
77414;BMP280;66486;49.992;19.164;2023-09-19T05:26:47;98152.66;;;18.77
77414;BMP280;66486;49.992;19.164;2023-09-19T05:29:16;98159.81;;;18.68
77414;BMP280;66486;49.992;19.164;2023-09-19T05:31:50;98154.41;;;18.74
77414;BMP280;66486;49.992;19.164;2023-09-19T05:34:20;98158.06;;;18.71
77414;BMP280;66486;49.992;19.164;2023-09-19T05:36:48;98152.09;;;18.67
77414;BMP280;66486;49.992;19.164;2023-09-19T05:39:16;98160.59;;;18.80
77414;BMP280;66486;49.992;19.164;2023-09-19T05:41:44;98158.19;;;18.88
77414;BMP280;66486;49.992;19.164;2023-09-19T05:44:11;98168.09;;;18.96
77414;BMP280;66486;49.992;19.164;2023-09-19T05:46:40;98165.81;;;18.89
77414;BMP280;66486;49.992;19.164;2023-09-19T05:49:07;98162.13;;;18.87
77414;BMP280;66486;49.992;19.164;2023-09-19T05:51:34;98165.78;;;18.78
77414;BMP280;66486;49.992;19.164;2023-09-19T05:54:02;98169.75;;;18.77
77414;BMP280;66486;49.992;19.164;2023-09-19T05:56:30;98173.25;;;18.78
77414;BMP280;66486;49.992;19.164;2023-09-19T05:58:57;98164.53;;;18.79
77414;BMP280;66486;49.992;19.164;2023-09-19T06:01:24;98162.88;;;18.87
77414;BMP280;66486;49.992;19.164;2023-09-19T06:03:49;98167.84;;;18.94
77414;BMP280;66486;49.992;19.164;2023-09-19T06:06:17;98178.75;;;18.94
77414;BMP280;66486;49.992;19.164;2023-09-19T06:08:44;98169.59;;;18.92
77414;BMP280;66486;49.992;19.164;2023-09-19T06:11:12;98179.28;;;18.98
77414;BMP280;66486;49.992;19.164;2023-09-19T06:13:39;98185.00;;;19.06
77414;BMP280;66486;49.992;19.164;2023-09-19T06:16:06;98188.47;;;19.01
77414;BMP280;66486;49.992;19.164;2023-09-19T06:18:32;98195.34;;;18.91
77414;BMP280;66486;49.992;19.164;2023-09-19T06:21:03;98196.78;;;18.81
77414;BMP280;66486;49.992;19.164;2023-09-19T06:23:34;98203.78;;;18.87
77414;BMP280;66486;49.992;19.164;2023-09-19T06:26:01;98197.25;;;18.79
77414;BMP280;66486;49.992;19.164;2023-09-19T06:28:27;98211.59;;;18.68
77414;BMP280;66486;49.992;19.164;2023-09-19T06:30:55;98227.38;;;18.59
77414;BMP280;66486;49.992;19.164;2023-09-19T06:33:21;98228.00;;;18.74
77414;BMP280;66486;49.992;19.164;2023-09-19T06:35:48;98232.91;;;18.70
77414;BMP280;66486;49.992;19.164;2023-09-19T06:38:15;98231.09;;;18.61
77414;BMP280;66486;49.992;19.164;2023-09-19T06:40:43;98239.97;;;18.51
77414;BMP280;66486;49.992;19.164;2023-09-19T06:43:11;98251.31;;;18.49
77414;BMP280;66486;49.992;19.164;2023-09-19T06:45:40;98259.91;;;18.42
77414;BMP280;66486;49.992;19.164;2023-09-19T06:48:10;98260.59;;;18.32
77414;BMP280;66486;49.992;19.164;2023-09-19T06:50:41;98257.41;;;18.39
77414;BMP280;66486;49.992;19.164;2023-09-19T06:53:18;98274.78;;;18.41
77414;BMP280;66486;49.992;19.164;2023-09-19T06:55:59;98276.44;;;18.33
77414;BMP280;66486;49.992;19.164;2023-09-19T06:58:28;98287.03;;;18.26
77414;BMP280;66486;49.992;19.164;2023-09-19T07:00:58;98302.22;;;18.38
77414;BMP280;66486;49.992;19.164;2023-09-19T07:03:27;98299.50;;;18.32
77414;BMP280;66486;49.992;19.164;2023-09-19T07:05:59;98316.81;;;18.35
77414;BMP280;66486;49.992;19.164;2023-09-19T07:08:27;98313.56;;;18.31
77414;BMP280;66486;49.992;19.164;2023-09-19T07:10:57;98314.41;;;18.42
77414;BMP280;66486;49.992;19.164;2023-09-19T07:13:25;98328.44;;;18.30
77414;BMP280;66486;49.992;19.164;2023-09-19T07:15:54;98333.88;;;18.30
77414;BMP280;66486;49.992;19.164;2023-09-19T07:18:24;98341.94;;;18.44
77414;BMP280;66486;49.992;19.164;2023-09-19T07:20:57;98341.72;;;18.22
77414;BMP280;66486;49.992;19.164;2023-09-19T07:23:32;98340.13;;;18.36
77414;BMP280;66486;49.992;19.164;2023-09-19T07:26:02;98348.34;;;18.16
77414;BMP280;66486;49.992;19.164;2023-09-19T07:28:31;98344.06;;;18.09
77414;BMP280;66486;49.992;19.164;2023-09-19T07:31:02;98349.69;;;18.06
77414;BMP280;66486;49.992;19.164;2023-09-19T07:33:30;98350.78;;;18.14
77414;BMP280;66486;49.992;19.164;2023-09-19T07:36:02;98344.53;;;18.08
77414;BMP280;66486;49.992;19.164;2023-09-19T07:38:30;98351.41;;;18.03
77414;BMP280;66486;49.992;19.164;2023-09-19T07:41:02;98357.75;;;17.95
77414;BMP280;66486;49.992;19.164;2023-09-19T07:43:28;98357.47;;;17.93
77414;BMP280;66486;49.992;19.164;2023-09-19T07:45:55;98361.28;;;18.01
77414;BMP280;66486;49.992;19.164;2023-09-19T07:48:21;98368.16;;;17.96
77414;BMP280;66486;49.992;19.164;2023-09-19T07:50:47;98369.84;;;18.14
77414;BMP280;66486;49.992;19.164;2023-09-19T07:53:13;98371.81;;;18.13
77414;BMP280;66486;49.992;19.164;2023-09-19T07:55:39;98379.72;;;18.11
77414;BMP280;66486;49.992;19.164;2023-09-19T07:58:07;98390.63;;;18.11
77414;BMP280;66486;49.992;19.164;2023-09-19T08:00:34;98391.59;;;18.08
77414;BMP280;66486;49.992;19.164;2023-09-19T08:03:01;98395.00;;;18.29
77414;BMP280;66486;49.992;19.164;2023-09-19T08:05:27;98394.91;;;18.18
77414;BMP280;66486;49.992;19.164;2023-09-19T08:07:53;98397.94;;;18.05
77414;BMP280;66486;49.992;19.164;2023-09-19T08:10:22;98412.06;;;18.04
77414;BMP280;66486;49.992;19.164;2023-09-19T08:12:48;98413.00;;;18.01
77414;BMP280;66486;49.992;19.164;2023-09-19T08:15:21;98414.09;;;18.09
77414;BMP280;66486;49.992;19.164;2023-09-19T08:17:48;98426.97;;;18.08
77414;BMP280;66486;49.992;19.164;2023-09-19T08:20:15;98428.94;;;18.08
77414;BMP280;66486;49.992;19.164;2023-09-19T08:22:51;98428.19;;;18.27
77414;BMP280;66486;49.992;19.164;2023-09-19T08:25:21;98426.09;;;18.37
77414;BMP280;66486;49.992;19.164;2023-09-19T08:27:48;98431.19;;;18.29
77414;BMP280;66486;49.992;19.164;2023-09-19T08:30:20;98428.94;;;18.28
77414;BMP280;66486;49.992;19.164;2023-09-19T08:32:50;98425.66;;;18.24
77414;BMP280;66486;49.992;19.164;2023-09-19T08:35:16;98434.28;;;18.42
77414;BMP280;66486;49.992;19.164;2023-09-19T08:37:43;98443.69;;;18.41
77414;BMP280;66486;49.992;19.164;2023-09-19T08:40:11;98446.38;;;18.56
77414;BMP280;66486;49.992;19.164;2023-09-19T08:42:50;98461.00;;;18.58
77414;BMP280;66486;49.992;19.164;2023-09-19T08:45:17;98461.88;;;18.50
77414;BMP280;66486;49.992;19.164;2023-09-19T08:47:53;98453.72;;;18.50
77414;BMP280;66486;49.992;19.164;2023-09-19T08:50:28;98451.06;;;18.55
77414;BMP280;66486;49.992;19.164;2023-09-19T08:53:01;98458.41;;;18.49
77414;BMP280;66486;49.992;19.164;2023-09-19T08:55:31;98450.97;;;18.50
77414;BMP280;66486;49.992;19.164;2023-09-19T08:58:03;98460.22;;;18.58
77414;BMP280;66486;49.992;19.164;2023-09-19T09:00:31;98460.69;;;18.56
77414;BMP280;66486;49.992;19.164;2023-09-19T09:02:58;98459.13;;;18.70
77414;BMP280;66486;49.992;19.164;2023-09-19T09:05:25;98452.22;;;18.74
77414;BMP280;66486;49.992;19.164;2023-09-19T09:07:53;98458.50;;;18.81
77414;BMP280;66486;49.992;19.164;2023-09-19T09:10:23;98458.22;;;18.79
77414;BMP280;66486;49.992;19.164;2023-09-19T09:12:53;98464.53;;;18.90
77414;BMP280;66486;49.992;19.164;2023-09-19T09:15:22;98460.06;;;18.93
77414;BMP280;66486;49.992;19.164;2023-09-19T09:17:51;98466.81;;;18.97
77414;BMP280;66486;49.992;19.164;2023-09-19T09:20:21;98456.84;;;19.14
77414;BMP280;66486;49.992;19.164;2023-09-19T09:22:54;98467.91;;;19.11
77414;BMP280;66486;49.992;19.164;2023-09-19T09:25:22;98461.03;;;19.15
77414;BMP280;66486;49.992;19.164;2023-09-19T09:28:01;98460.78;;;19.13
77414;BMP280;66486;49.992;19.164;2023-09-19T09:30:37;98465.72;;;19.15
77414;BMP280;66486;49.992;19.164;2023-09-19T09:33:13;98465.03;;;19.14
77414;BMP280;66486;49.992;19.164;2023-09-19T09:35:55;98466.41;;;19.04
77414;BMP280;66486;49.992;19.164;2023-09-19T09:38:27;98465.06;;;18.94
77414;BMP280;66486;49.992;19.164;2023-09-19T09:40:56;98484.94;;;19.00
77414;BMP280;66486;49.992;19.164;2023-09-19T09:43:36;98481.84;;;19.13
77414;BMP280;66486;49.992;19.164;2023-09-19T09:46:12;98487.09;;;19.16
77414;BMP280;66486;49.992;19.164;2023-09-19T09:51:48;98494.66;;;19.01
77414;BMP280;66486;49.992;19.164;2023-09-19T09:54:24;98490.91;;;18.99
77414;BMP280;66486;49.992;19.164;2023-09-19T09:57:00;98490.50;;;18.86
77414;BMP280;66486;49.992;19.164;2023-09-19T09:59:46;98493.63;;;18.99
77414;BMP280;66486;49.992;19.164;2023-09-19T10:02:14;98492.09;;;18.92
77414;BMP280;66486;49.992;19.164;2023-09-19T10:04:42;98496.81;;;18.97
77414;BMP280;66486;49.992;19.164;2023-09-19T10:07:36;98499.50;;;18.92
77414;BMP280;66486;49.992;19.164;2023-09-19T10:10:07;98493.75;;;18.90
77414;BMP280;66486;49.992;19.164;2023-09-19T10:12:46;98495.50;;;19.13
77414;BMP280;66486;49.992;19.164;2023-09-19T10:15:15;98497.91;;;19.05
77414;BMP280;66486;49.992;19.164;2023-09-19T10:17:45;98510.78;;;19.05
77414;BMP280;66486;49.992;19.164;2023-09-19T10:20:16;98509.97;;;18.99
77414;BMP280;66486;49.992;19.164;2023-09-19T10:23:00;98493.28;;;19.17
77414;BMP280;66486;49.992;19.164;2023-09-19T10:25:26;98511.69;;;18.96
77414;BMP280;66486;49.992;19.164;2023-09-19T10:28:00;98502.38;;;19.08
77414;BMP280;66486;49.992;19.164;2023-09-19T10:30:32;98506.41;;;19.13
77414;BMP280;66486;49.992;19.164;2023-09-19T10:33:03;98515.03;;;19.11
77414;BMP280;66486;49.992;19.164;2023-09-19T10:35:32;98518.22;;;19.04
77414;BMP280;66486;49.992;19.164;2023-09-19T10:38:04;98518.06;;;19.13
77414;BMP280;66486;49.992;19.164;2023-09-19T10:40:33;98512.16;;;19.20
77414;BMP280;66486;49.992;19.164;2023-09-19T10:43:03;98522.59;;;19.22
77414;BMP280;66486;49.992;19.164;2023-09-19T10:45:34;98527.53;;;19.18
77414;BMP280;66486;49.992;19.164;2023-09-19T10:48:02;98531.16;;;19.09
77414;BMP280;66486;49.992;19.164;2023-09-19T10:50:36;98527.16;;;19.05
77414;BMP280;66486;49.992;19.164;2023-09-19T10:53:08;98534.25;;;18.97
77414;BMP280;66486;49.992;19.164;2023-09-19T10:55:37;98533.00;;;18.92
77414;BMP280;66486;49.992;19.164;2023-09-19T10:58:05;98537.25;;;18.99
77414;BMP280;66486;49.992;19.164;2023-09-19T11:00:53;98545.91;;;18.97
77414;BMP280;66486;49.992;19.164;2023-09-19T11:03:22;98544.47;;;19.02
77414;BMP280;66486;49.992;19.164;2023-09-19T11:06:08;98548.69;;;19.03
77414;BMP280;66486;49.992;19.164;2023-09-19T11:08:58;98546.81;;;18.89
77414;BMP280;66486;49.992;19.164;2023-09-19T11:11:43;98556.06;;;18.97
77414;BMP280;66486;49.992;19.164;2023-09-19T11:30:49;98546.78;;;19.09
77414;BMP280;66486;49.992;19.164;2023-09-19T11:33:29;98551.78;;;19.10
77414;BMP280;66486;49.992;19.164;2023-09-19T11:36:17;98548.38;;;19.21
77414;BMP280;66486;49.992;19.164;2023-09-19T11:43:52;98561.25;;;19.46
77414;BMP280;66486;49.992;19.164;2023-09-19T11:46:21;98561.75;;;19.44
77414;BMP280;66486;49.992;19.164;2023-09-19T11:48:51;98558.47;;;19.40
77414;BMP280;66486;49.992;19.164;2023-09-19T11:51:19;98559.44;;;19.37
77414;BMP280;66486;49.992;19.164;2023-09-19T11:53:49;98561.81;;;19.24
77414;BMP280;66486;49.992;19.164;2023-09-19T11:56:19;98561.00;;;19.18
77414;BMP280;66486;49.992;19.164;2023-09-19T11:58:46;98568.50;;;19.23
77414;BMP280;66486;49.992;19.164;2023-09-19T12:01:22;98564.75;;;19.21
77414;BMP280;66486;49.992;19.164;2023-09-19T12:03:53;98576.97;;;19.25
77414;BMP280;66486;49.992;19.164;2023-09-19T12:06:20;98576.25;;;19.30
77414;BMP280;66486;49.992;19.164;2023-09-19T12:08:47;98573.06;;;19.37
77414;BMP280;66486;49.992;19.164;2023-09-19T12:11:15;98565.81;;;19.54
77414;BMP280;66486;49.992;19.164;2023-09-19T12:13:45;98573.59;;;19.41
77414;BMP280;66486;49.992;19.164;2023-09-19T12:16:14;98574.31;;;19.36
77414;BMP280;66486;49.992;19.164;2023-09-19T12:18:44;98568.66;;;19.40
77414;BMP280;66486;49.992;19.164;2023-09-19T12:21:30;98575.94;;;19.48
77414;BMP280;66486;49.992;19.164;2023-09-19T12:26:43;98572.22;;;19.51
77414;BMP280;66486;49.992;19.164;2023-09-19T12:29:13;98580.94;;;19.55
77414;BMP280;66486;49.992;19.164;2023-09-19T12:31:50;98583.84;;;19.78
77414;BMP280;66486;49.992;19.164;2023-09-19T12:34:21;98581.94;;;19.89
77414;BMP280;66486;49.992;19.164;2023-09-19T12:36:48;98576.47;;;19.89
77414;BMP280;66486;49.992;19.164;2023-09-19T12:39:24;98581.13;;;20.09
77414;BMP280;66486;49.992;19.164;2023-09-19T12:41:52;98581.44;;;20.22
77414;BMP280;66486;49.992;19.164;2023-09-19T12:44:19;98574.75;;;20.28
77414;BMP280;66486;49.992;19.164;2023-09-19T12:46:47;98575.25;;;20.32
77414;BMP280;66486;49.992;19.164;2023-09-19T12:49:20;98569.88;;;20.49
77414;BMP280;66486;49.992;19.164;2023-09-19T12:51:47;98571.97;;;20.71
77414;BMP280;66486;49.992;19.164;2023-09-19T12:54:13;98572.50;;;20.91
77414;BMP280;66486;49.992;19.164;2023-09-19T12:56:44;98575.53;;;21.26
77414;BMP280;66486;49.992;19.164;2023-09-19T12:59:12;98573.84;;;21.57
77414;BMP280;66486;49.992;19.164;2023-09-19T13:01:40;98572.09;;;21.65
77414;BMP280;66486;49.992;19.164;2023-09-19T13:04:21;98569.09;;;21.63
77414;BMP280;66486;49.992;19.164;2023-09-19T13:06:56;98566.09;;;21.77
77414;BMP280;66486;49.992;19.164;2023-09-19T13:09:27;98565.06;;;21.86
77414;BMP280;66486;49.992;19.164;2023-09-19T13:12:37;98564.09;;;21.83
77414;BMP280;66486;49.992;19.164;2023-09-19T13:15:11;98563.53;;;22.12
77414;BMP280;66486;49.992;19.164;2023-09-19T13:17:48;98557.00;;;22.26
77414;BMP280;66486;49.992;19.164;2023-09-19T13:20:27;98565.78;;;22.71
77414;BMP280;66486;49.992;19.164;2023-09-19T13:22:54;98562.16;;;22.87
77414;BMP280;66486;49.992;19.164;2023-09-19T13:25:26;98564.41;;;22.89
77414;BMP280;66486;49.992;19.164;2023-09-19T13:27:56;98571.75;;;22.75
77414;BMP280;66486;49.992;19.164;2023-09-19T13:30:25;98565.28;;;22.62
77414;BMP280;66486;49.992;19.164;2023-09-19T13:32:52;98553.22;;;22.35
77414;BMP280;66486;49.992;19.164;2023-09-19T13:35:19;98567.25;;;22.20
77414;BMP280;66486;49.992;19.164;2023-09-19T13:37:47;98561.78;;;22.15
77414;BMP280;66486;49.992;19.164;2023-09-19T13:40:17;98569.78;;;21.85
77414;BMP280;66486;49.992;19.164;2023-09-19T13:42:43;98563.88;;;21.65
77414;BMP280;66486;49.992;19.164;2023-09-19T13:45:09;98574.81;;;21.59
77414;BMP280;66486;49.992;19.164;2023-09-19T13:47:40;98573.06;;;21.62
77414;BMP280;66486;49.992;19.164;2023-09-19T13:50:07;98563.66;;;21.41
77414;BMP280;66486;49.992;19.164;2023-09-19T13:52:33;98567.84;;;21.41
77414;BMP280;66486;49.992;19.164;2023-09-19T13:54:59;98576.03;;;21.41
77414;BMP280;66486;49.992;19.164;2023-09-19T13:57:26;98572.09;;;21.48
77414;BMP280;66486;49.992;19.164;2023-09-19T13:59:53;98568.63;;;21.48
77414;BMP280;66486;49.992;19.164;2023-09-19T14:02:23;98572.06;;;21.42
77414;BMP280;66486;49.992;19.164;2023-09-19T14:04:51;98567.09;;;21.47
77414;BMP280;66486;49.992;19.164;2023-09-19T14:07:17;98578.56;;;21.28
77414;BMP280;66486;49.992;19.164;2023-09-19T14:09:45;98570.56;;;21.08
77414;BMP280;66486;49.992;19.164;2023-09-19T14:12:13;98569.81;;;21.19
77414;BMP280;66486;49.992;19.164;2023-09-19T14:14:39;98580.75;;;21.19
77414;BMP280;66486;49.992;19.164;2023-09-19T14:17:05;98574.81;;;21.20
77414;BMP280;66486;49.992;19.164;2023-09-19T14:19:33;98578.78;;;21.14
77414;BMP280;66486;49.992;19.164;2023-09-19T14:21:59;98572.53;;;21.13
77414;BMP280;66486;49.992;19.164;2023-09-19T14:24:27;98580.50;;;21.00
77414;BMP280;66486;49.992;19.164;2023-09-19T14:26:53;98579.75;;;21.00
77414;BMP280;66486;49.992;19.164;2023-09-19T14:29:19;98579.19;;;20.79
77414;BMP280;66486;49.992;19.164;2023-09-19T14:31:45;98590.81;;;20.69
77414;BMP280;66486;49.992;19.164;2023-09-19T14:34:11;98589.59;;;20.70
77414;BMP280;66486;49.992;19.164;2023-09-19T14:36:38;98587.34;;;20.63
77414;BMP280;66486;49.992;19.164;2023-09-19T14:39:07;98579.16;;;20.68
77414;BMP280;66486;49.992;19.164;2023-09-19T14:41:34;98585.59;;;20.65
77414;BMP280;66486;49.992;19.164;2023-09-19T14:44:02;98590.31;;;20.59
77414;BMP280;66486;49.992;19.164;2023-09-19T14:46:29;98581.41;;;20.64
77414;BMP280;66486;49.992;19.164;2023-09-19T14:48:56;98580.84;;;20.60
77414;BMP280;66486;49.992;19.164;2023-09-19T14:51:27;98584.38;;;20.66